Time;durP1;ratioP1;P1;durP2;ratioP2;P2;SDS_P1;SDS_P2;PMS_P1;PMS_P2;Temp;Humidity;BMP_temperature;BMP_pressure;BME280_temperature;BME280_humidity;BME280_pressure;Samples;Min_cycle;Max_cycle;Signal;HPM_P1;HPM_P2
2023/05/07 00:01:53;;;;;;;38.28;26.98;;;11.80;99.90;;;;;;5065882;28;20137;-66
2023/05/07 00:04:19;;;;;;;41.35;26.95;;;11.70;99.90;;;;;;5065791;28;20090;-66
2023/05/07 00:06:44;;;;;;;42.88;27.95;;;11.70;99.90;;;;;;5075336;28;20114;-67
2023/05/07 00:09:10;;;;;;;42.28;27.25;;;11.70;99.90;;;;;;5069251;28;20056;-66
2023/05/07 00:11:36;;;;;;;41.83;27.50;;;11.70;99.90;;;;;;5079499;28;20663;-64
2023/05/07 00:14:02;;;;;;;39.83;26.50;;;11.60;99.90;;;;;;5065915;28;20514;-63
2023/05/07 00:16:28;;;;;;;40.78;27.25;;;11.70;99.90;;;;;;5065985;28;20560;-64
2023/05/07 00:18:54;;;;;;;44.05;27.77;;;11.70;99.90;;;;;;5049138;28;20036;-64
2023/05/07 00:21:21;;;;;;;39.03;26.30;;;11.60;99.90;;;;;;5048994;28;20064;-64
2023/05/07 00:23:47;;;;;;;43.65;27.98;;;11.60;99.90;;;;;;5049419;28;20532;-66
2023/05/07 00:26:13;;;;;;;41.33;27.98;;;11.60;99.90;;;;;;5059500;28;20503;-66
2023/05/07 00:28:39;;;;;;;40.25;27.77;;;11.60;99.90;;;;;;5049222;28;20099;-66
2023/05/07 00:31:04;;;;;;;41.85;27.42;;;11.50;99.90;;;;;;5064764;28;20043;-65
2023/05/07 00:33:30;;;;;;;43.45;28.95;;;11.50;99.90;;;;;;5065729;28;20041;-65
2023/05/07 00:35:56;;;;;;;46.45;28.88;;;11.50;99.90;;;;;;5048537;28;20101;-67
2023/05/07 00:38:22;;;;;;;45.28;28.42;;;11.50;99.90;;;;;;5066238;28;20036;-66
2023/05/07 00:40:48;;;;;;;45.70;28.15;;;11.50;99.90;;;;;;5058024;28;20049;-64
2023/05/07 00:43:14;;;;;;;43.88;29.08;;;11.50;99.90;;;;;;5048194;28;20048;-67
2023/05/07 00:45:40;;;;;;;45.97;28.50;;;11.40;99.90;;;;;;5064896;28;20498;-63
2023/05/07 00:48:06;;;;;;;46.35;29.00;;;11.40;99.90;;;;;;5066823;28;20043;-64
2023/05/07 00:50:33;;;;;;;41.42;28.73;;;11.40;99.90;;;;;;5084017;28;20036;-62
2023/05/07 00:53:00;;;;;;;44.78;29.13;;;11.30;99.90;;;;;;5067288;28;20040;-63
2023/05/07 00:55:26;;;;;;;44.80;29.55;;;11.30;99.90;;;;;;5052494;28;20488;-63
2023/05/07 00:57:52;;;;;;;45.33;29.67;;;11.30;99.90;;;;;;5060036;28;20571;-65
2023/05/07 01:00:20;;;;;;;48.53;28.83;;;11.30;99.90;;;;;;5081107;28;20044;-64
2023/05/07 01:02:46;;;;;;;47.88;30.33;;;11.30;99.90;;;;;;5065656;28;20415;-63
2023/05/07 01:05:15;;;;;;;47.17;29.98;;;11.20;99.90;;;;;;5058070;28;20046;-63
2023/05/07 01:07:42;;;;;;;43.53;28.52;;;11.20;99.90;;;;;;5085224;28;20040;-65
2023/05/07 01:10:09;;;;;;;50.80;32.42;;;11.20;99.90;;;;;;5086502;28;20514;-64
2023/05/07 01:12:37;;;;;;;53.90;32.60;;;11.10;99.90;;;;;;5086496;28;20051;-63
2023/05/07 01:15:05;;;;;;;54.20;31.98;;;11.20;99.90;;;;;;5076919;28;20108;-62
2023/05/07 01:17:39;;;;;;;55.10;33.50;;;11.10;99.90;;;;;;5080822;28;20131;-62
2023/05/07 01:20:07;;;;;;;51.03;32.40;;;11.10;99.90;;;;;;5058770;28;20051;-63
2023/05/07 01:22:43;;;;;;;55.45;32.90;;;11.10;99.90;;;;;;5048531;28;20533;-62
2023/05/07 01:25:09;;;;;;;57.60;34.25;;;11.00;99.90;;;;;;5065420;28;20692;-62
2023/05/07 01:27:36;;;;;;;50.88;33.42;;;11.00;99.90;;;;;;5048160;28;20052;-62
2023/05/07 01:30:02;;;;;;;52.25;33.30;;;11.00;99.90;;;;;;5047029;28;20525;-63
2023/05/07 01:32:35;;;;;;;53.25;33.78;;;11.00;99.90;;;;;;5047904;28;20041;-62
2023/05/07 01:35:02;;;;;;;57.58;34.90;;;11.00;99.90;;;;;;5047901;28;20044;-61
2023/05/07 01:37:29;;;;;;;55.50;35.42;;;10.90;99.90;;;;;;5086044;28;20062;-62
2023/05/07 01:39:55;;;;;;;58.10;34.67;;;10.90;99.90;;;;;;5078687;28;20037;-62
2023/05/07 01:42:22;;;;;;;57.05;34.55;;;10.90;99.90;;;;;;5047775;28;20524;-62
2023/05/07 01:44:48;;;;;;;56.58;35.55;;;10.90;99.90;;;;;;5063296;28;20127;-60
2023/05/07 01:47:14;;;;;;;56.88;35.40;;;10.90;99.90;;;;;;5056954;28;20654;-62
2023/05/07 01:49:41;;;;;;;56.25;35.67;;;10.90;99.90;;;;;;5081649;28;20404;-63
2023/05/07 01:52:08;;;;;;;59.38;36.33;;;10.80;99.90;;;;;;5091802;28;20036;-62
2023/05/07 01:54:34;;;;;;;59.28;36.67;;;10.80;99.90;;;;;;5075543;28;20127;-61
2023/05/07 01:57:00;;;;;;;57.05;34.35;;;10.80;99.90;;;;;;5065623;28;20040;-62
2023/05/07 01:59:26;;;;;;;62.13;36.08;;;10.80;99.90;;;;;;5062813;28;20101;-61
2023/05/07 02:01:52;;;;;;;68.43;38.00;;;10.80;99.90;;;;;;5063976;28;20043;-62
2023/05/07 02:04:17;;;;;;;62.35;36.72;;;10.80;99.90;;;;;;5064571;28;20051;-62
2023/05/07 02:06:43;;;;;;;65.18;38.80;;;10.80;99.90;;;;;;5053484;28;20400;-62
2023/05/07 02:09:09;;;;;;;74.47;40.15;;;10.70;99.90;;;;;;5047221;28;20118;-61
2023/05/07 02:11:35;;;;;;;67.80;38.25;;;10.70;99.90;;;;;;5070872;28;20127;-61
2023/05/07 02:14:00;;;;;;;67.35;38.10;;;10.70;99.90;;;;;;5102601;28;20036;-62
2023/05/07 02:16:26;;;;;;;70.18;38.38;;;10.70;99.90;;;;;;5089915;28;20036;-62
2023/05/07 02:18:52;;;;;;;75.68;40.45;;;10.70;99.90;;;;;;5063815;28;20093;-61
2023/05/07 02:21:18;;;;;;;65.88;38.40;;;10.70;99.90;;;;;;5063925;28;20116;-62
2023/05/07 02:23:43;;;;;;;84.30;41.50;;;10.70;99.90;;;;;;5058024;28;20046;-63
2023/05/07 02:26:10;;;;;;;78.00;39.20;;;10.70;99.90;;;;;;5069833;28;20509;-62
2023/05/07 02:28:36;;;;;;;73.70;40.45;;;10.60;99.90;;;;;;5062863;28;20048;-61
2023/05/07 02:31:05;;;;;;;66.82;37.90;;;10.60;99.90;;;;;;5064807;28;20048;-62
2023/05/07 02:33:31;;;;;;;72.40;38.75;;;10.60;99.90;;;;;;5063829;28;20119;-62
2023/05/07 02:35:56;;;;;;;67.10;39.38;;;10.60;99.90;;;;;;5064677;28;20156;-62
2023/05/07 02:38:23;;;;;;;73.80;40.72;;;10.60;99.90;;;;;;5063351;28;20053;-63
2023/05/07 02:40:49;;;;;;;82.10;41.50;;;10.60;99.90;;;;;;5064514;28;20115;-63
2023/05/07 02:43:14;;;;;;;73.05;39.92;;;10.60;99.90;;;;;;5080488;28;20505;-63
2023/05/07 02:45:40;;;;;;;70.15;38.38;;;10.60;99.90;;;;;;5066412;28;20036;-62
2023/05/07 02:48:06;;;;;;;73.43;39.47;;;10.60;99.90;;;;;;5083954;28;20481;-62
2023/05/07 02:50:32;;;;;;;80.05;41.03;;;10.60;99.90;;;;;;5051367;28;20043;-61
2023/05/07 02:52:58;;;;;;;76.00;40.53;;;10.60;99.90;;;;;;5063631;28;20438;-63
2023/05/07 02:55:24;;;;;;;74.20;41.00;;;10.60;99.90;;;;;;5052709;28;20036;-63
2023/05/07 02:57:50;;;;;;;79.55;40.30;;;10.60;99.90;;;;;;5067769;28;20624;-62
2023/05/07 03:00:18;;;;;;;74.13;40.17;;;10.60;99.90;;;;;;5064462;28;20715;-63
2023/05/07 03:02:44;;;;;;;74.10;40.75;;;10.60;99.90;;;;;;5063174;28;20037;-63
2023/05/07 03:05:10;;;;;;;76.53;40.45;;;10.60;99.90;;;;;;5064709;28;20064;-61
2023/05/07 03:07:37;;;;;;;89.80;42.35;;;10.60;99.90;;;;;;5053478;28;20432;-61
2023/05/07 03:10:03;;;;;;;71.22;39.38;;;10.60;99.90;;;;;;5080735;28;20083;-60
2023/05/07 03:12:30;;;;;;;77.68;41.47;;;10.50;99.90;;;;;;5071769;28;20512;-62
2023/05/07 03:14:55;;;;;;;73.93;41.58;;;10.50;99.90;;;;;;5055728;28;20040;-60
2023/05/07 03:17:22;;;;;;;82.75;42.83;;;10.50;99.90;;;;;;5068681;28;20051;-61
2023/05/07 03:19:47;;;;;;;75.00;41.72;;;10.50;99.90;;;;;;5046534;28;20055;-61
2023/05/07 03:22:13;;;;;;;79.88;40.55;;;10.50;99.90;;;;;;5057564;28;20402;-62
2023/05/07 03:24:39;;;;;;;74.35;40.85;;;10.50;99.90;;;;;;5065268;28;20097;-62
2023/05/07 03:27:05;;;;;;;72.65;41.13;;;10.50;99.90;;;;;;5063613;28;20547;-62
2023/05/07 03:29:30;;;;;;;74.00;40.97;;;10.50;99.90;;;;;;5063612;28;20029;-61
2023/05/07 03:31:56;;;;;;;79.03;41.65;;;10.40;99.90;;;;;;5063965;28;20028;-63
2023/05/07 03:34:22;;;;;;;70.88;40.60;;;10.40;99.90;;;;;;5064614;28;20033;-63
2023/05/07 03:36:51;;;;;;;79.35;42.20;;;10.40;99.90;;;;;;5046343;28;20052;-62
2023/05/07 03:39:17;;;;;;;77.32;41.47;;;10.40;99.90;;;;;;5045520;28;20583;-64
2023/05/07 03:41:42;;;;;;;70.07;39.60;;;10.40;99.90;;;;;;5039082;28;20094;-67
2023/05/07 03:44:08;;;;;;;71.90;40.20;;;10.40;99.90;;;;;;5049481;28;20101;-61
2023/05/07 03:46:34;;;;;;;64.20;38.92;;;10.30;99.90;;;;;;5067592;28;20407;-63
2023/05/07 03:49:00;;;;;;;67.03;39.05;;;10.30;99.90;;;;;;5053203;28;20039;-63
2023/05/07 03:51:26;;;;;;;76.78;39.58;;;10.30;99.90;;;;;;5073421;28;20041;-62
2023/05/07 03:53:52;;;;;;;67.47;40.28;;;10.30;99.90;;;;;;5066570;28;20091;-63
2023/05/07 03:56:19;;;;;;;66.72;38.50;;;10.30;99.90;;;;;;5067455;28;20194;-62
2023/05/07 03:58:45;;;;;;;65.65;38.28;;;10.30;99.90;;;;;;5066129;28;20044;-62
2023/05/07 04:01:11;;;;;;;67.10;38.30;;;10.30;99.90;;;;;;5048829;28;20164;-66
2023/05/07 04:03:37;;;;;;;68.28;38.13;;;10.20;99.90;;;;;;5050057;28;20043;-61
2023/05/07 04:06:03;;;;;;;65.93;38.38;;;10.20;99.90;;;;;;5049908;28;20436;-62
2023/05/07 04:08:29;;;;;;;72.60;38.05;;;10.20;99.90;;;;;;5085183;28;20135;-65
2023/05/07 04:10:56;;;;;;;67.78;37.15;;;10.20;99.90;;;;;;5064193;28;20127;-63
2023/05/07 04:13:21;;;;;;;64.75;37.70;;;10.20;99.90;;;;;;5050908;28;20044;-63
2023/05/07 04:15:48;;;;;;;61.22;36.58;;;10.20;99.90;;;;;;5065878;28;20115;-62
2023/05/07 04:18:15;;;;;;;66.65;37.53;;;10.20;99.90;;;;;;5075452;28;20078;-65
2023/05/07 04:20:41;;;;;;;63.17;36.75;;;10.20;99.90;;;;;;5065292;28;20530;-62
2023/05/07 04:23:07;;;;;;;63.63;38.20;;;10.20;99.90;;;;;;5073069;28;20123;-63
2023/05/07 04:25:33;;;;;;;64.85;38.40;;;10.10;99.90;;;;;;5072435;28;20365;-63
2023/05/07 04:27:59;;;;;;;62.47;37.85;;;10.10;99.90;;;;;;5080968;28;20051;-63
2023/05/07 04:30:25;;;;;;;71.90;38.63;;;10.10;99.90;;;;;;5085597;28;20539;-64
2023/05/07 04:32:51;;;;;;;70.78;39.65;;;10.10;99.90;;;;;;5068938;28;20047;-63
2023/05/07 04:35:17;;;;;;;60.25;36.05;;;10.10;99.90;;;;;;5063268;28;20506;-64
2023/05/07 04:37:43;;;;;;;63.55;37.30;;;10.10;99.90;;;;;;5065528;28;20054;-64
2023/05/07 04:40:09;;;;;;;61.67;36.35;;;10.10;99.90;;;;;;5048649;28;20051;-63
2023/05/07 04:42:35;;;;;;;67.82;37.33;;;10.10;99.90;;;;;;5048224;28;20044;-65
2023/05/07 04:45:02;;;;;;;63.33;35.70;;;10.20;99.90;;;;;;5064865;28;20041;-62
2023/05/07 04:47:28;;;;;;;62.40;36.33;;;10.20;99.90;;;;;;5066061;28;20059;-64
2023/05/07 04:49:53;;;;;;;60.78;36.05;;;10.20;99.90;;;;;;5066593;28;20625;-63
2023/05/07 04:52:20;;;;;;;59.50;35.90;;;10.20;99.90;;;;;;5068256;28;20047;-63
2023/05/07 04:54:45;;;;;;;58.65;34.85;;;10.20;99.90;;;;;;5084358;28;20152;-63
2023/05/07 04:57:15;;;;;;;56.22;34.45;;;10.20;99.90;;;;;;5049498;28;20044;-62
2023/05/07 04:59:40;;;;;;;60.38;35.88;;;10.20;99.90;;;;;;5047738;28;20040;-62
2023/05/07 05:02:06;;;;;;;56.00;35.30;;;10.20;99.90;;;;;;5098497;28;20043;-63
2023/05/07 05:04:32;;;;;;;55.30;33.65;;;10.20;99.90;;;;;;5080838;28;20545;-64
2023/05/07 05:06:58;;;;;;;52.10;33.15;;;10.20;99.90;;;;;;5047456;28;20041;-64
2023/05/07 05:09:24;;;;;;;56.03;33.17;;;10.20;99.90;;;;;;5047283;28;20557;-63
2023/05/07 05:11:50;;;;;;;56.35;32.50;;;10.20;99.90;;;;;;5048588;28;20044;-63
2023/05/07 05:14:16;;;;;;;49.70;32.28;;;10.20;99.90;;;;;;5053428;28;20101;-63
2023/05/07 05:16:42;;;;;;;58.13;34.00;;;10.20;99.90;;;;;;5085009;28;20060;-62
2023/05/07 05:19:07;;;;;;;54.15;33.78;;;10.20;99.90;;;;;;5066913;28;20354;-62
2023/05/07 05:21:33;;;;;;;54.35;34.08;;;10.20;99.90;;;;;;5084205;28;20043;-62
2023/05/07 05:24:02;;;;;;;56.58;33.72;;;10.20;99.90;;;;;;5087490;28;20043;-61
2023/05/07 05:26:28;;;;;;;54.58;33.75;;;10.20;99.90;;;;;;5085489;28;20658;-62
2023/05/07 05:28:53;;;;;;;58.28;34.95;;;10.20;99.90;;;;;;5064666;28;20139;-62
2023/05/07 05:31:22;;;;;;;53.63;33.95;;;10.20;99.90;;;;;;5047186;28;20040;-64
2023/05/07 05:33:48;;;;;;;54.83;34.67;;;10.30;99.90;;;;;;5048150;28;20217;-62
2023/05/07 05:36:13;;;;;;;54.13;33.95;;;10.30;99.90;;;;;;5064231;28;20040;-62
2023/05/07 05:38:40;;;;;;;54.20;32.13;;;10.30;99.90;;;;;;5084879;28;20036;-64
2023/05/07 05:41:05;;;;;;;53.55;31.38;;;10.30;99.90;;;;;;5056300;28;20075;-67
2023/05/07 05:43:31;;;;;;;52.40;33.35;;;10.30;99.90;;;;;;5064756;28;20072;-65
2023/05/07 05:45:57;;;;;;;59.70;34.22;;;10.30;99.90;;;;;;5063863;28;20043;-61
2023/05/07 05:48:23;;;;;;;53.83;32.75;;;10.40;99.90;;;;;;5065256;28;20047;-64
2023/05/07 05:50:49;;;;;;;57.00;34.08;;;10.40;99.90;;;;;;5074061;28;20540;-64
2023/05/07 05:53:15;;;;;;;47.53;31.13;;;10.30;99.90;;;;;;5084648;28;20050;-66
2023/05/07 05:55:42;;;;;;;44.38;29.75;;;10.40;99.90;;;;;;5075597;28;20055;-64
2023/05/07 05:58:09;;;;;;;50.25;30.40;;;10.30;99.90;;;;;;5078911;28;20054;-63
2023/05/07 06:00:35;;;;;;;49.45;29.48;;;10.40;99.90;;;;;;5082245;28;20490;-65
2023/05/07 06:03:01;;;;;;;45.65;30.75;;;10.40;99.90;;;;;;5087004;28;20053;-64
2023/05/07 06:05:26;;;;;;;48.08;30.27;;;10.30;99.90;;;;;;5069590;28;20145;-63
2023/05/07 06:07:52;;;;;;;47.10;30.77;;;10.40;99.90;;;;;;5052748;28;20539;-66
2023/05/07 06:10:18;;;;;;;47.03;29.73;;;10.40;99.90;;;;;;5063793;28;20048;-64
2023/05/07 06:12:44;;;;;;;48.58;30.00;;;10.40;99.90;;;;;;5073158;28;20400;-66
2023/05/07 06:15:10;;;;;;;46.42;30.20;;;10.40;99.90;;;;;;5046926;28;20048;-70
2023/05/07 06:17:36;;;;;;;44.60;29.45;;;10.40;99.90;;;;;;5046635;28;20048;-63
2023/05/07 06:20:02;;;;;;;47.40;30.17;;;10.40;99.90;;;;;;5072032;28;20111;-67
2023/05/07 06:22:28;;;;;;;50.38;29.10;;;10.40;99.90;;;;;;5101839;28;20376;-65
2023/05/07 06:24:54;;;;;;;50.72;31.63;;;10.40;99.90;;;;;;5065375;28;20124;-65
2023/05/07 06:27:19;;;;;;;47.13;28.63;;;10.40;99.90;;;;;;5046792;28;20125;-64
2023/05/07 06:29:45;;;;;;;42.30;28.58;;;10.40;99.90;;;;;;5046792;28;20100;-65
2023/05/07 06:32:13;;;;;;;42.90;26.92;;;10.40;99.90;;;;;;5046912;28;20052;-68
2023/05/07 06:34:39;;;;;;;39.75;27.85;;;10.40;99.90;;;;;;5046748;28;20052;-66
2023/05/07 06:37:05;;;;;;;40.85;27.92;;;10.40;99.90;;;;;;5063810;28;20052;-64
2023/05/07 06:39:31;;;;;;;48.03;28.52;;;10.40;99.90;;;;;;5064405;28;20052;-67
2023/05/07 06:41:57;;;;;;;47.65;29.23;;;10.50;99.90;;;;;;5065141;28;20055;-65
2023/05/07 06:44:23;;;;;;;46.08;28.73;;;10.50;99.90;;;;;;5064625;28;20047;-65
2023/05/07 06:46:49;;;;;;;44.83;27.92;;;10.50;99.90;;;;;;5062953;28;20048;-63
2023/05/07 06:49:15;;;;;;;45.40;29.55;;;10.60;99.90;;;;;;5046697;28;20033;-63
2023/05/07 06:51:41;;;;;;;43.55;28.50;;;10.60;99.90;;;;;;5063719;28;20119;-63
2023/05/07 06:54:06;;;;;;;44.28;27.75;;;10.60;99.90;;;;;;5064543;28;20037;-66
2023/05/07 06:56:33;;;;;;;43.75;28.42;;;10.60;99.90;;;;;;5049094;28;20143;-65
2023/05/07 06:59:00;;;;;;;47.25;30.42;;;10.70;99.90;;;;;;5063223;28;20094;-68
2023/05/07 07:01:26;;;;;;;49.95;30.38;;;10.70;99.90;;;;;;5080225;28;20047;-65
2023/05/07 07:03:52;;;;;;;43.13;28.20;;;10.70;99.90;;;;;;5078913;28;20071;-66
2023/05/07 07:06:18;;;;;;;44.70;28.83;;;10.70;99.90;;;;;;5072533;28;20032;-66
2023/05/07 07:08:45;;;;;;;46.35;28.45;;;10.70;99.90;;;;;;5071570;28;20114;-66
2023/05/07 07:11:11;;;;;;;48.00;29.58;;;10.70;99.90;;;;;;5064359;28;20047;-69
2023/05/07 07:13:37;;;;;;;44.22;28.88;;;10.70;99.90;;;;;;5064959;28;20535;-64
2023/05/07 07:16:03;;;;;;;42.05;28.55;;;10.80;99.90;;;;;;5066986;28;20032;-63
2023/05/07 07:18:29;;;;;;;44.55;28.70;;;10.80;99.90;;;;;;5050120;28;20041;-67
2023/05/07 07:20:55;;;;;;;44.08;27.98;;;10.80;99.90;;;;;;5076675;28;20108;-69
2023/05/07 07:23:20;;;;;;;44.05;28.60;;;10.90;99.90;;;;;;5076304;28;20043;-69
2023/05/07 07:25:46;;;;;;;46.08;29.20;;;10.90;99.90;;;;;;5061405;28;20036;-69
2023/05/07 07:28:12;;;;;;;44.55;28.58;;;10.90;99.90;;;;;;5066642;28;20044;-64
2023/05/07 07:30:38;;;;;;;42.85;28.80;;;11.00;99.90;;;;;;5049840;28;20087;-66
2023/05/07 07:33:05;;;;;;;39.75;27.27;;;11.00;99.90;;;;;;5066878;28;20747;-68
2023/05/07 07:35:31;;;;;;;45.38;29.05;;;11.00;99.90;;;;;;5080141;28;20044;-64
2023/05/07 07:38:01;;;;;;;44.83;28.25;;;11.10;99.90;;;;;;5069874;28;20044;-64
2023/05/07 07:40:27;;;;;;;43.85;28.73;;;11.10;99.90;;;;;;5057548;28;20051;-65
2023/05/07 07:42:53;;;;;;;46.10;29.25;;;11.10;99.90;;;;;;5050188;28;20041;-62
2023/05/07 07:45:19;;;;;;;44.08;27.80;;;11.10;99.90;;;;;;5050089;28;20105;-68
2023/05/07 07:47:45;;;;;;;42.92;28.27;;;11.10;99.90;;;;;;5049148;28;20052;-69
2023/05/07 07:50:11;;;;;;;45.83;29.67;;;11.20;99.90;;;;;;5050132;28;20090;-67
2023/05/07 07:52:38;;;;;;;44.65;28.98;;;11.20;99.90;;;;;;5068296;28;20468;-68
2023/05/07 07:55:04;;;;;;;43.00;28.63;;;11.30;99.90;;;;;;5068854;28;20067;-69
2023/05/07 07:57:30;;;;;;;42.78;28.50;;;11.30;99.90;;;;;;5071181;28;20044;-63
2023/05/07 07:59:56;;;;;;;48.00;30.02;;;11.30;99.90;;;;;;5045578;28;20507;-65
2023/05/07 08:02:22;;;;;;;43.60;28.67;;;11.50;99.90;;;;;;5066370;28;20543;-67
2023/05/07 08:04:48;;;;;;;43.17;27.13;;;11.50;99.90;;;;;;5061536;28;20078;-64
2023/05/07 08:07:14;;;;;;;46.50;29.90;;;11.60;99.90;;;;;;5073950;28;20658;-63
2023/05/07 08:09:40;;;;;;;43.72;28.80;;;11.60;99.90;;;;;;5056345;28;20325;-64
2023/05/07 08:12:07;;;;;;;43.58;26.85;;;11.70;99.90;;;;;;5058820;28;20040;-68
2023/05/07 08:14:33;;;;;;;44.45;28.98;;;11.80;99.90;;;;;;5078484;28;20094;-66
2023/05/07 08:16:59;;;;;;;41.05;28.13;;;11.80;99.90;;;;;;5068483;28;20041;-66
2023/05/07 08:19:25;;;;;;;42.30;27.80;;;11.80;99.90;;;;;;5080117;28;20067;-68
2023/05/07 08:21:51;;;;;;;44.47;29.63;;;11.80;99.90;;;;;;5066339;28;20049;-64
2023/05/07 08:24:17;;;;;;;39.65;26.55;;;11.90;99.90;;;;;;5060847;28;20517;-65
2023/05/07 08:26:44;;;;;;;40.47;25.92;;;11.90;99.90;;;;;;5050721;28;20044;-67
2023/05/07 08:29:09;;;;;;;37.50;26.48;;;12.00;99.90;;;;;;5069417;28;20047;-63
2023/05/07 08:31:35;;;;;;;40.05;27.50;;;12.00;99.90;;;;;;5065820;28;20036;-67
2023/05/07 08:34:01;;;;;;;45.45;28.52;;;12.00;99.90;;;;;;5085726;28;20050;-70
2023/05/07 08:36:28;;;;;;;41.80;27.02;;;12.10;99.90;;;;;;5085794;28;20036;-65
2023/05/07 08:38:54;;;;;;;38.25;27.30;;;12.10;99.90;;;;;;5079204;28;20024;-68
2023/05/07 08:41:20;;;;;;;39.47;26.70;;;12.20;99.90;;;;;;5062756;28;20043;-65
2023/05/07 08:43:50;;;;;;;38.33;25.48;;;12.20;99.90;;;;;;5064223;28;20737;-65
2023/05/07 08:46:21;;;;;;;41.13;28.98;;;12.20;99.90;;;;;;5068196;28;20040;-64
2023/05/07 08:48:51;;;;;;;41.63;28.27;;;12.30;99.90;;;;;;5061029;28;20044;-66
2023/05/07 08:51:20;;;;;;;40.83;27.40;;;12.40;99.90;;;;;;5062795;28;20052;-65
2023/05/07 08:53:50;;;;;;;40.00;26.65;;;12.50;99.90;;;;;;5073159;28;20129;-68
2023/05/07 08:56:17;;;;;;;44.03;28.48;;;12.60;99.90;;;;;;5061883;28;20446;-67
2023/05/07 08:58:44;;;;;;;39.65;26.73;;;12.70;99.90;;;;;;5071506;28;20176;-67
2023/05/07 09:01:14;;;;;;;42.72;26.90;;;12.80;99.90;;;;;;5085468;28;20075;-67
2023/05/07 09:03:40;;;;;;;40.53;26.98;;;12.90;99.90;;;;;;5066365;28;20028;-65
2023/05/07 09:06:06;;;;;;;32.53;24.17;;;12.90;99.90;;;;;;5051811;28;20044;-66
2023/05/07 09:08:35;;;;;;;34.00;24.67;;;13.00;99.90;;;;;;5081294;28;20063;-68
2023/05/07 09:11:02;;;;;;;36.90;26.13;;;13.00;99.90;;;;;;5082840;28;20135;-65
2023/05/07 09:13:28;;;;;;;39.35;27.23;;;13.00;99.90;;;;;;5072427;28;20634;-66
2023/05/07 09:15:54;;;;;;;38.08;27.00;;;13.10;99.90;;;;;;5079657;28;20028;-64
2023/05/07 09:18:20;;;;;;;38.13;26.27;;;13.20;99.90;;;;;;5056139;28;20036;-67
2023/05/07 09:20:46;;;;;;;38.28;26.10;;;13.30;99.90;;;;;;5053616;28;20056;-66
2023/05/07 09:23:12;;;;;;;38.92;26.77;;;13.30;99.90;;;;;;5048993;28;20052;-67
2023/05/07 09:25:38;;;;;;;35.75;24.58;;;13.30;99.90;;;;;;5063886;28;20033;-71
2023/05/07 09:28:07;;;;;;;36.72;25.67;;;13.30;99.90;;;;;;5048509;28;20408;-64
2023/05/07 09:30:34;;;;;;;36.95;26.10;;;13.30;99.90;;;;;;5069786;28;20471;-66
2023/05/07 09:33:01;;;;;;;37.92;25.50;;;13.30;99.90;;;;;;5085760;28;20501;-65
2023/05/07 09:35:27;;;;;;;33.17;24.08;;;13.40;99.90;;;;;;5085017;28;20398;-61
2023/05/07 09:37:58;;;;;;;37.55;26.08;;;13.40;99.90;;;;;;5071783;28;20040;-67
2023/05/07 09:40:31;;;;;;;37.17;24.98;;;13.40;99.90;;;;;;5074088;28;20384;-64
2023/05/07 09:43:08;;;;;;;40.83;26.30;;;13.40;99.90;;;;;;5064400;28;20074;-68
2023/05/07 09:45:34;;;;;;;33.88;25.50;;;13.60;99.90;;;;;;5047387;28;20123;-67
2023/05/07 09:48:04;;;;;;;46.75;26.15;;;13.90;99.90;;;;;;5054669;28;20132;-63
2023/05/07 09:50:36;;;;;;;34.65;24.20;;;14.00;99.90;;;;;;5082264;28;20552;-67
2023/05/07 09:53:03;;;;;;;34.05;24.10;;;14.20;99.90;;;;;;5106023;28;20122;-65
2023/05/07 09:55:30;;;;;;;34.00;23.63;;;14.20;99.90;;;;;;5094161;28;20091;-63
2023/05/07 09:57:58;;;;;;;31.17;23.00;;;14.20;99.90;;;;;;5047316;28;20446;-63
2023/05/07 10:00:27;;;;;;;31.27;24.02;;;14.30;99.90;;;;;;5046932;28;20040;-67
2023/05/07 10:02:54;;;;;;;31.40;21.90;;;14.40;99.90;;;;;;5047613;28;20040;-62
2023/05/07 10:05:21;;;;;;;32.10;23.10;;;14.60;99.90;;;;;;5066291;28;20048;-66
2023/05/07 10:07:47;;;;;;;31.25;22.25;;;14.70;99.90;;;;;;5075857;28;20089;-67
2023/05/07 10:10:15;;;;;;;30.33;22.67;;;14.70;99.90;;;;;;5096638;28;20062;-65
2023/05/07 10:12:41;;;;;;;31.08;22.50;;;14.60;99.90;;;;;;5065579;28;20046;-65
2023/05/07 10:15:11;;;;;;;31.58;23.90;;;14.60;99.90;;;;;;5063568;28;20515;-68
2023/05/07 10:17:39;;;;;;;32.53;23.60;;;14.60;99.90;;;;;;5063683;28;20201;-65
2023/05/07 10:20:05;;;;;;;32.40;21.58;;;14.60;99.90;;;;;;5064496;28;20036;-65
2023/05/07 10:22:42;;;;;;;29.38;22.35;;;14.70;99.90;;;;;;5078118;28;20275;-67
2023/05/07 10:25:22;;;;;;;28.75;21.70;;;14.70;99.90;;;;;;5083054;28;20040;-68
2023/05/07 10:27:51;;;;;;;26.90;20.20;;;14.70;99.90;;;;;;5055674;28;20047;-64
2023/05/07 10:30:28;;;;;;;29.38;22.20;;;14.60;99.90;;;;;;5063379;28;20075;-64
2023/05/07 10:32:56;;;;;;;31.45;21.80;;;14.60;99.90;;;;;;5063676;28;20045;-68
2023/05/07 10:35:25;;;;;;;26.30;20.95;;;14.50;99.90;;;;;;5063204;28;20037;-72
2023/05/07 10:37:51;;;;;;;32.03;22.98;;;14.50;99.90;;;;;;5046684;28;20131;-66
2023/05/07 10:40:20;;;;;;;26.85;21.15;;;14.60;99.90;;;;;;5076297;28;20044;-67
2023/05/07 10:43:06;;;;;;;29.80;22.75;;;14.70;99.90;;;;;;5063923;28;20637;-68
2023/05/07 10:45:32;;;;;;;25.75;20.10;;;14.80;99.90;;;;;;5065810;28;20067;-65
2023/05/07 10:48:17;;;;;;;28.80;21.70;;;14.90;99.90;;;;;;5083150;28;20403;-67
2023/05/07 10:50:44;;;;;;;27.45;21.30;;;14.90;99.90;;;;;;5082092;28;20032;-65
2023/05/07 10:53:19;;;;;;;30.98;22.85;;;14.90;99.90;;;;;;5073156;28;20396;-66
2023/05/07 10:55:50;;;;;;;27.63;21.55;;;15.00;99.90;;;;;;5057422;28;20037;-68
2023/05/07 10:58:29;;;;;;;27.60;21.23;;;15.00;99.90;;;;;;5069399;28;20079;-68
2023/05/07 11:01:02;;;;;;;26.88;20.90;;;15.10;99.90;;;;;;5051519;28;20036;-66
2023/05/07 11:03:29;;;;;;;26.70;21.13;;;15.20;99.90;;;;;;5067438;28;20041;-63
2023/05/07 11:06:15;;;;;;;26.35;19.48;;;15.20;99.90;;;;;;5075567;28;20123;-69
2023/05/07 11:08:56;;;;;;;29.67;22.13;;;15.30;99.90;;;;;;5050210;28;20135;-63
2023/05/07 11:11:44;;;;;;;28.40;21.02;;;15.30;99.90;;;;;;5048978;28;20132;-68
2023/05/07 11:14:10;;;;;;;28.63;22.10;;;15.30;99.90;;;;;;5067808;28;20335;-68
2023/05/07 11:16:38;;;;;;;27.85;21.25;;;15.40;99.90;;;;;;5074711;28;20094;-67
2023/05/07 11:19:04;;;;;;;25.83;20.65;;;15.50;99.90;;;;;;5067794;28;20120;-67
2023/05/07 11:21:34;;;;;;;30.38;20.98;;;15.80;99.90;;;;;;5086667;28;20063;-65
2023/05/07 11:24:00;;;;;;;25.30;19.00;;;15.90;99.90;;;;;;5075334;28;20032;-64
2023/05/07 11:26:28;;;;;;;25.77;21.02;;;15.90;99.90;;;;;;5071203;28;20040;-69
2023/05/07 11:28:54;;;;;;;25.98;21.42;;;16.00;99.90;;;;;;5086251;28;20480;-64
2023/05/07 11:31:25;;;;;;;28.52;22.52;;;15.90;99.90;;;;;;5086704;28;20040;-65
2023/05/07 11:33:53;;;;;;;25.27;20.45;;;16.00;99.90;;;;;;5069911;28;20032;-63
2023/05/07 11:36:21;;;;;;;29.05;20.40;;;16.00;99.90;;;;;;5062136;28;20051;-66
2023/05/07 11:38:47;;;;;;;26.13;20.33;;;16.10;99.90;;;;;;5049516;28;20123;-65
2023/05/07 11:41:12;;;;;;;25.77;20.88;;;16.20;99.90;;;;;;5058988;28;20122;-64
2023/05/07 11:43:53;;;;;;;25.80;21.02;;;16.20;99.90;;;;;;5069333;28;20075;-67
2023/05/07 11:46:20;;;;;;;23.55;19.38;;;16.30;99.90;;;;;;5049991;28;20052;-69
2023/05/07 11:48:46;;;;;;;26.40;20.02;;;16.40;99.90;;;;;;5057544;28;20041;-61
2023/05/07 11:51:13;;;;;;;26.13;20.02;;;16.40;99.90;;;;;;5066740;28;20074;-68
2023/05/07 11:53:42;;;;;;;23.80;19.67;;;16.40;99.90;;;;;;5066891;28;20045;-66
2023/05/07 11:56:09;;;;;;;27.80;21.27;;;16.50;99.90;;;;;;5054112;28;20060;-68
2023/05/07 11:58:36;;;;;;;24.23;19.25;;;16.70;99.90;;;;;;5076168;28;20036;-69
2023/05/07 12:01:02;;;;;;;25.02;20.85;;;16.90;99.90;;;;;;5059567;28;20495;-68
2023/05/07 12:03:28;;;;;;;24.55;21.05;;;16.80;99.90;;;;;;5075310;28;20892;-69
2023/05/07 12:05:54;;;;;;;28.38;21.95;;;16.80;99.90;;;;;;5071644;28;20131;-66
2023/05/07 12:08:21;;;;;;;23.40;19.25;;;16.90;99.90;;;;;;5057933;28;20853;-64
2023/05/07 12:10:50;;;;;;;25.85;20.40;;;16.90;99.90;;;;;;5053856;28;20050;-66
2023/05/07 12:13:17;;;;;;;25.88;19.83;;;17.00;99.90;;;;;;5076239;28;20063;-65
2023/05/07 12:15:43;;;;;;;22.23;19.00;;;16.90;99.90;;;;;;5065784;28;20091;-67
2023/05/07 12:18:11;;;;;;;23.83;19.48;;;17.00;99.90;;;;;;5051911;28;20047;-66
2023/05/07 12:20:39;;;;;;;26.95;20.75;;;17.00;99.90;;;;;;5067324;28;20564;-64
2023/05/07 12:23:05;;;;;;;23.55;19.80;;;17.20;99.90;;;;;;5049128;28;20442;-65
2023/05/07 12:25:47;;;;;;;22.45;19.55;;;17.30;99.90;;;;;;5046999;28;20491;-67
2023/05/07 12:28:17;;;;;;;24.60;20.48;;;17.40;99.90;;;;;;5067283;28;20037;-67